createdAt,value
2023-05-17T00:00:17.179Z,28.55
2023-05-17T00:01:17.197Z,26.29
2023-05-17T00:02:17.192Z,29.06
2023-05-17T00:03:17.188Z,29.56
2023-05-17T00:04:17.229Z,28.93
2023-05-17T00:05:17.200Z,30.94
2023-05-17T00:06:17.198Z,29.20
2023-05-17T00:07:17.194Z,29.69
2023-05-17T00:08:17.182Z,27.94
2023-05-17T00:09:17.197Z,30.15
2023-05-17T00:10:17.190Z,29.17
2023-05-17T00:11:17.182Z,27.87
2023-05-17T00:12:17.190Z,26.44
2023-05-17T00:13:17.263Z,27.01
2023-05-17T00:14:17.191Z,28.84
2023-05-17T00:15:17.194Z,28.62
2023-05-17T00:16:17.197Z,29.25
2023-05-17T00:17:17.209Z,29.43
2023-05-17T00:18:17.235Z,29.79
2023-05-17T00:19:17.284Z,29.10
2023-05-17T00:20:17.196Z,27.84
2023-05-17T00:21:17.265Z,29.78
2023-05-17T00:22:17.225Z,30.38
2023-05-17T00:23:17.186Z,30.36
2023-05-17T00:24:17.180Z,33.02
2023-05-17T00:25:17.170Z,31.68
2023-05-17T00:26:17.166Z,28.77
2023-05-17T00:27:17.187Z,31.16
2023-05-17T00:28:17.178Z,30.80
2023-05-17T00:29:17.241Z,29.04
2023-05-17T00:30:17.163Z,29.43
2023-05-17T00:31:17.151Z,28.41
2023-05-17T00:32:17.155Z,29.88
2023-05-17T00:33:17.154Z,28.32
2023-05-17T00:34:17.139Z,29.64
2023-05-17T00:35:17.227Z,29.46
2023-05-17T00:36:17.159Z,30.05
2023-05-17T00:37:17.148Z,27.41
2023-05-17T00:38:17.143Z,27.14
2023-05-17T00:39:17.126Z,29.10
2023-05-17T00:40:17.134Z,30.40
2023-05-17T00:41:17.135Z,29.55
2023-05-17T00:42:17.131Z,29.62
2023-05-17T00:43:17.124Z,30.00
2023-05-17T00:44:17.142Z,29.43
2023-05-17T00:45:17.191Z,30.05
2023-05-17T00:46:17.137Z,29.15
2023-05-17T00:47:17.196Z,28.50
2023-05-17T00:48:17.230Z,29.99
2023-05-17T00:49:17.169Z,28.51
2023-05-17T00:50:17.185Z,28.86
2023-05-17T00:51:17.220Z,29.50
2023-05-17T00:52:17.246Z,30.06
2023-05-17T00:53:17.257Z,29.39
2023-05-17T00:54:17.291Z,28.57
2023-05-17T00:55:17.312Z,28.46
2023-05-17T00:56:17.326Z,30.03
2023-05-17T00:57:17.356Z,29.32
2023-05-17T00:58:17.383Z,30.00
2023-05-17T00:59:17.396Z,28.67
2023-05-17T01:00:17.418Z,29.08
2023-05-17T01:01:17.494Z,29.20
2023-05-17T01:02:17.437Z,29.61
2023-05-17T01:03:17.465Z,29.95
2023-05-17T01:04:17.546Z,29.07
2023-05-17T01:05:17.454Z,29.33
2023-05-17T01:06:17.441Z,29.82
2023-05-17T01:07:17.411Z,30.00
2023-05-17T01:08:17.415Z,29.90
2023-05-17T01:09:17.405Z,27.76
2023-05-17T01:10:17.411Z,28.96
2023-05-17T01:11:17.414Z,29.13
2023-05-17T01:12:17.416Z,29.38
2023-05-17T01:13:17.428Z,29.67
2023-05-17T01:14:17.403Z,29.46
2023-05-17T01:15:17.414Z,29.71
2023-05-17T01:16:17.410Z,29.89
2023-05-17T01:17:17.694Z,27.47
2023-05-17T01:18:17.551Z,26.92
2023-05-17T01:19:17.474Z,28.88
2023-05-17T01:20:17.446Z,30.30
2023-05-17T01:21:17.402Z,26.88
2023-05-17T01:22:17.413Z,29.24
2023-05-17T01:23:17.405Z,27.08
2023-05-17T01:24:17.405Z,26.73
2023-05-17T01:25:17.401Z,27.38
2023-05-17T01:26:17.412Z,28.85
2023-05-17T01:27:17.410Z,28.89
2023-05-17T01:28:17.412Z,28.92
2023-05-17T01:29:17.424Z,29.82
2023-05-17T01:30:17.410Z,28.28
2023-05-17T01:31:17.499Z,28.61
2023-05-17T01:32:17.433Z,27.39
2023-05-17T01:33:17.572Z,25.81
2023-05-17T01:34:17.407Z,28.76
2023-05-17T01:35:17.408Z,28.68
2023-05-17T01:36:17.405Z,28.93
2023-05-17T01:37:17.425Z,26.52
2023-05-17T01:38:17.450Z,26.21
2023-05-17T01:39:17.459Z,27.01
2023-05-17T01:40:17.484Z,27.31
2023-05-17T01:41:17.515Z,27.98
2023-05-17T01:42:17.537Z,25.60
2023-05-17T01:43:17.565Z,25.26
2023-05-17T01:44:17.574Z,29.37
2023-05-17T01:45:17.599Z,29.03
2023-05-17T01:46:17.647Z,28.93
2023-05-17T01:47:17.646Z,27.18
2023-05-17T01:48:17.765Z,28.09
2023-05-17T01:49:17.755Z,29.07
2023-05-17T01:50:17.745Z,26.95
2023-05-17T01:51:17.743Z,29.09
2023-05-17T01:52:17.762Z,27.09
2023-05-17T01:53:17.787Z,27.47
2023-05-17T01:54:17.827Z,28.48
2023-05-17T01:55:17.859Z,28.98
2023-05-17T01:56:17.940Z,29.08
2023-05-17T01:57:17.906Z,29.79
2023-05-17T01:58:17.927Z,28.11
2023-05-17T01:59:17.941Z,29.11
2023-05-17T02:00:17.961Z,28.21
2023-05-17T02:01:17.991Z,30.86
2023-05-17T02:02:18.039Z,27.74
2023-05-17T02:03:18.084Z,29.37
2023-05-17T02:04:18.184Z,27.98
2023-05-17T02:05:18.288Z,28.51
2023-05-17T02:06:18.114Z,27.96
2023-05-17T02:07:18.151Z,30.08
2023-05-17T02:08:18.179Z,25.89
2023-05-17T02:09:18.196Z,25.40
2023-05-17T02:10:18.233Z,27.93
2023-05-17T02:11:18.255Z,28.87
2023-05-17T02:12:18.300Z,26.80
2023-05-17T02:13:18.306Z,29.04
2023-05-17T02:14:18.331Z,26.93
2023-05-17T02:15:18.381Z,28.02
2023-05-17T02:16:18.398Z,28.42
2023-05-17T02:17:18.449Z,29.50
2023-05-17T02:18:18.505Z,27.91
2023-05-17T02:19:18.534Z,29.41
2023-05-17T02:20:18.514Z,29.06
2023-05-17T02:21:18.607Z,28.09
2023-05-17T02:22:18.566Z,29.75
2023-05-17T02:23:18.594Z,27.44
2023-05-17T02:24:18.634Z,28.33
2023-05-17T02:25:18.657Z,29.97
2023-05-17T02:26:18.697Z,28.46
2023-05-17T02:27:18.708Z,29.45
2023-05-17T02:28:18.699Z,29.57
2023-05-17T02:29:18.687Z,29.70
2023-05-17T02:30:18.674Z,29.56
2023-05-17T02:31:18.675Z,27.56
2023-05-17T02:32:18.685Z,29.53
2023-05-17T02:33:18.752Z,31.60
2023-05-17T02:34:18.674Z,28.72
2023-05-17T02:35:18.678Z,28.93
2023-05-17T02:36:18.673Z,29.84
2023-05-17T02:37:18.654Z,25.85
2023-05-17T02:38:18.652Z,28.51
2023-05-17T02:39:18.665Z,28.61
2023-05-17T02:40:18.675Z,27.81
2023-05-17T02:41:18.653Z,27.90
2023-05-17T02:42:18.674Z,27.68
2023-05-17T02:43:18.638Z,28.46
2023-05-17T02:44:18.634Z,28.63
2023-05-17T02:45:18.626Z,28.53
2023-05-17T02:46:18.622Z,28.65
2023-05-17T02:47:18.692Z,28.57
2023-05-17T02:48:18.672Z,27.09
2023-05-17T02:49:18.608Z,27.03
2023-05-17T02:50:18.601Z,28.62
2023-05-17T02:51:18.589Z,27.48
2023-05-17T02:52:18.600Z,29.30
2023-05-17T02:53:18.613Z,27.36
2023-05-17T02:54:18.590Z,27.92
2023-05-17T02:55:18.602Z,29.08
2023-05-17T02:56:18.576Z,29.17
2023-05-17T02:57:18.644Z,27.67
2023-05-17T02:58:18.574Z,29.45
2023-05-17T02:59:18.581Z,25.04
2023-05-17T03:00:18.548Z,28.92
2023-05-17T03:01:18.578Z,28.43
2023-05-17T03:02:18.680Z,27.25
2023-05-17T03:03:18.764Z,18.10
2023-05-17T03:04:18.678Z,13.79
2023-05-17T03:05:18.674Z,7.19
2023-05-17T03:06:18.696Z,8.20
2023-05-17T03:07:18.689Z,0.00
2023-05-17T03:08:18.692Z,0.00
2023-05-17T03:09:18.701Z,0.00
2023-05-17T03:10:18.701Z,0.00
2023-05-17T03:11:18.718Z,0.00
2023-05-17T03:12:18.703Z,0.00
2023-05-17T03:13:18.726Z,0.00
2023-05-17T03:14:18.700Z,0.00
2023-05-17T03:15:18.711Z,0.00
2023-05-17T03:16:18.710Z,0.00
2023-05-17T03:17:18.715Z,0.00
2023-05-17T03:18:18.837Z,0.00
2023-05-17T03:19:18.818Z,0.00
2023-05-17T03:20:18.726Z,0.00
2023-05-17T03:21:18.738Z,0.00
2023-05-17T03:22:18.776Z,0.00
2023-05-17T03:23:18.799Z,0.00
2023-05-17T03:24:18.796Z,0.00
2023-05-17T03:25:18.884Z,0.00
2023-05-17T03:26:18.841Z,0.00
2023-05-17T03:27:18.877Z,8.04
2023-05-17T03:28:18.897Z,21.36
2023-05-17T03:29:18.930Z,25.00
2023-05-17T03:30:19.015Z,25.01
2023-05-17T03:31:19.020Z,25.00
2023-05-17T03:32:19.047Z,25.00
2023-05-17T03:33:19.149Z,24.92
2023-05-17T03:34:19.131Z,25.13
2023-05-17T03:35:19.183Z,25.00
2023-05-17T03:36:19.271Z,25.10
2023-05-17T03:37:19.289Z,25.00
2023-05-17T03:38:19.352Z,25.75
2023-05-17T03:39:19.391Z,25.00
2023-05-17T03:40:19.456Z,25.90
2023-05-17T03:41:19.606Z,25.69
2023-05-17T03:42:19.564Z,25.00
2023-05-17T03:43:19.643Z,25.61
2023-05-17T03:44:19.684Z,25.58
2023-05-17T03:45:19.779Z,25.00
2023-05-17T03:46:19.822Z,25.00
2023-05-17T03:47:19.863Z,27.39
2023-05-17T03:48:19.978Z,25.53
2023-05-17T03:49:20.000Z,25.00
2023-05-17T03:50:20.060Z,25.00
2023-05-17T03:51:20.125Z,25.02
2023-05-17T03:52:20.219Z,25.50
2023-05-17T03:53:20.259Z,26.23
2023-05-17T03:54:20.328Z,25.00
2023-05-17T03:55:20.396Z,26.01
2023-05-17T03:56:20.482Z,27.24
2023-05-17T03:57:20.557Z,25.83
2023-05-17T03:58:20.649Z,25.00
2023-05-17T03:59:20.704Z,25.60
2023-05-17T04:00:20.788Z,26.93
2023-05-17T04:01:20.871Z,27.34
2023-05-17T04:02:20.948Z,26.06
2023-05-17T04:03:21.028Z,27.91
2023-05-17T04:04:21.130Z,26.60
2023-05-17T04:05:21.201Z,26.27
2023-05-17T04:06:21.234Z,25.00
2023-05-17T04:07:21.309Z,25.76
2023-05-17T04:08:21.387Z,28.44
2023-05-17T04:09:21.476Z,26.96
2023-05-17T04:10:21.532Z,26.48
2023-05-17T04:11:21.590Z,25.34
2023-05-17T04:12:21.693Z,25.00
2023-05-17T04:13:21.761Z,26.01
2023-05-17T04:14:21.718Z,26.63
2023-05-17T04:15:22.042Z,29.79
2023-05-17T04:16:21.786Z,25.36
2023-05-17T04:17:21.843Z,29.53
2023-05-17T04:18:21.974Z,27.72
2023-05-17T04:19:22.037Z,25.57
2023-05-17T04:20:22.044Z,33.69
2023-05-17T04:21:22.084Z,40.86
2023-05-17T04:22:22.126Z,41.03
2023-05-17T04:23:22.116Z,42.71
2023-05-17T04:24:22.106Z,48.84
2023-05-17T04:25:22.110Z,62.97
2023-05-17T04:26:22.113Z,80.01
2023-05-17T04:27:22.129Z,89.66
2023-05-17T04:28:22.133Z,88.66
2023-05-17T04:29:22.212Z,100.84
2023-05-17T04:30:22.131Z,108.97
2023-05-17T04:31:22.137Z,119.66
2023-05-17T04:32:22.149Z,128.70
2023-05-17T04:33:22.247Z,140.08
2023-05-17T04:34:22.174Z,151.15
2023-05-17T04:35:22.172Z,155.89
2023-05-17T04:36:22.211Z,160.00
2023-05-17T04:37:22.183Z,165.67
2023-05-17T04:38:22.193Z,170.87
2023-05-17T04:39:22.195Z,176.10
2023-05-17T04:40:22.223Z,182.35
2023-05-17T04:41:22.239Z,191.89
2023-05-17T04:42:22.238Z,197.03
2023-05-17T04:43:22.278Z,198.17
2023-05-17T04:44:22.276Z,205.80
2023-05-17T04:45:22.350Z,202.88
2023-05-17T04:46:22.307Z,197.56
2023-05-17T04:47:22.337Z,202.01
2023-05-17T04:48:22.415Z,208.66
2023-05-17T04:49:22.329Z,216.69
2023-05-17T04:50:22.351Z,199.03
2023-05-17T04:51:22.352Z,181.61
2023-05-17T04:52:22.363Z,165.51
2023-05-17T04:53:22.386Z,137.29
2023-05-17T04:54:22.389Z,113.30
2023-05-17T04:55:22.408Z,101.26
2023-05-17T04:56:22.413Z,104.25
2023-05-17T04:57:22.418Z,111.31
2023-05-17T04:58:22.447Z,116.07
2023-05-17T04:59:22.455Z,106.37
2023-05-17T05:00:22.467Z,97.75
2023-05-17T05:01:22.542Z,107.28
2023-05-17T05:02:22.497Z,115.75
2023-05-17T05:03:22.571Z,123.71
2023-05-17T05:04:22.581Z,131.07
2023-05-17T05:05:22.512Z,131.44
2023-05-17T05:06:22.516Z,133.97
2023-05-17T05:07:22.538Z,139.05
2023-05-17T05:08:22.571Z,149.75
2023-05-17T05:09:22.561Z,161.01
2023-05-17T05:10:22.545Z,161.72
2023-05-17T05:11:22.549Z,158.85
2023-05-17T05:12:22.572Z,156.97
2023-05-17T05:13:22.571Z,155.55
2023-05-17T05:14:22.566Z,155.38
2023-05-17T05:15:22.619Z,138.51
2023-05-17T05:16:22.683Z,134.34
2023-05-17T05:17:22.829Z,136.30
2023-05-17T05:18:22.864Z,127.97
2023-05-17T05:19:22.934Z,113.65
2023-05-17T05:20:22.897Z,105.08
2023-05-17T05:21:22.959Z,105.17
2023-05-17T05:22:22.985Z,111.46
2023-05-17T05:23:23.054Z,121.04
2023-05-17T05:24:23.128Z,113.37
2023-05-17T05:25:23.149Z,102.18
2023-05-17T05:26:23.169Z,103.49
2023-05-17T05:27:23.155Z,103.62
2023-05-17T05:28:23.167Z,103.88
2023-05-17T05:29:23.183Z,103.17
2023-05-17T05:30:23.178Z,108.08
2023-05-17T05:31:23.221Z,121.68
2023-05-17T05:32:23.231Z,135.38
2023-05-17T05:33:23.403Z,155.93
2023-05-17T05:34:23.177Z,183.36
2023-05-17T05:35:23.174Z,199.08
2023-05-17T05:36:23.180Z,209.73
2023-05-17T05:37:23.204Z,218.98
2023-05-17T05:38:23.193Z,232.38
2023-05-17T05:39:23.201Z,250.00
2023-05-17T05:40:23.192Z,250.00
2023-05-17T05:41:23.267Z,249.99
2023-05-17T05:42:23.308Z,249.69
2023-05-17T05:43:23.392Z,250.00
2023-05-17T05:44:25.797Z,248.96
2023-05-17T05:45:23.603Z,250.00
2023-05-17T05:46:23.662Z,249.53
2023-05-17T05:47:23.732Z,165.23
2023-05-17T05:48:23.780Z,122.46
2023-05-17T05:49:23.767Z,112.63
2023-05-17T05:50:23.777Z,103.73
2023-05-17T05:51:23.788Z,101.24
2023-05-17T05:52:23.775Z,104.74
2023-05-17T05:53:23.778Z,105.16
2023-05-17T05:54:23.784Z,123.39
2023-05-17T05:55:23.794Z,129.14
2023-05-17T05:56:23.786Z,133.62
2023-05-17T05:57:23.791Z,141.01
2023-05-17T05:58:23.811Z,133.62
2023-05-17T05:59:23.853Z,133.07
2023-05-17T06:00:23.859Z,125.22
2023-05-17T06:01:23.890Z,103.81
2023-05-17T06:02:23.924Z,99.66
2023-05-17T06:03:23.887Z,104.53
2023-05-17T06:04:32.823Z,109.91
2023-05-17T06:05:24.046Z,104.68
2023-05-17T06:06:23.998Z,106.72
2023-05-17T06:07:23.900Z,104.49
2023-05-17T06:08:23.903Z,108.26
2023-05-17T06:09:23.920Z,107.18
2023-05-17T06:10:23.908Z,117.65
2023-05-17T06:11:23.912Z,133.90
2023-05-17T06:12:23.934Z,114.29
2023-05-17T06:13:23.942Z,126.29
2023-05-17T06:14:23.919Z,133.49
2023-05-17T06:15:23.919Z,151.44
2023-05-17T06:16:23.919Z,156.23
2023-05-17T06:17:23.929Z,157.42
2023-05-17T06:18:23.962Z,159.71
2023-05-17T06:19:24.062Z,157.13
2023-05-17T06:20:23.924Z,156.22
2023-05-17T06:21:23.930Z,150.75
2023-05-17T06:22:23.943Z,153.30
2023-05-17T06:23:23.957Z,151.95
2023-05-17T06:24:23.968Z,152.71
2023-05-17T06:25:23.972Z,146.18
2023-05-17T06:26:23.971Z,142.58
2023-05-17T06:27:23.960Z,149.24
2023-05-17T06:28:23.976Z,153.13
2023-05-17T06:29:23.997Z,153.31
2023-05-17T06:30:23.977Z,143.55
2023-05-17T06:31:23.978Z,116.72
2023-05-17T06:32:23.976Z,134.72
2023-05-17T06:33:24.100Z,153.54
2023-05-17T06:34:24.007Z,167.60
2023-05-17T06:35:24.014Z,181.92
2023-05-17T06:36:24.990Z,209.14
2023-05-17T06:37:24.167Z,222.71
2023-05-17T06:38:24.069Z,237.21
2023-05-17T06:39:24.097Z,250.00
2023-05-17T06:40:24.148Z,250.00
2023-05-17T06:41:24.214Z,250.00
2023-05-17T06:42:24.263Z,250.41
2023-05-17T06:43:24.308Z,250.14
2023-05-17T06:44:24.373Z,209.28
2023-05-17T06:45:24.401Z,203.09
2023-05-17T06:46:24.448Z,107.43
2023-05-17T06:47:24.608Z,59.34
2023-05-17T06:48:24.633Z,49.89
2023-05-17T06:49:24.524Z,50.31
2023-05-17T06:50:24.543Z,52.88
2023-05-17T06:51:24.562Z,57.38
2023-05-17T06:52:24.566Z,65.46
2023-05-17T06:53:24.657Z,77.32
2023-05-17T06:54:24.591Z,85.69
2023-05-17T06:55:24.595Z,88.83
2023-05-17T06:56:24.598Z,89.04
2023-05-17T06:57:24.621Z,90.11
2023-05-17T06:58:24.630Z,92.16
2023-05-17T06:59:24.633Z,89.28
2023-05-17T07:00:24.637Z,91.47
2023-05-17T07:01:24.673Z,96.45
2023-05-17T07:02:24.649Z,107.08
2023-05-17T07:03:24.689Z,89.95
2023-05-17T07:04:24.723Z,94.72
2023-05-17T07:05:24.784Z,103.14
2023-05-17T07:06:24.659Z,119.01
2023-05-17T07:07:24.679Z,137.52
2023-05-17T07:08:24.731Z,144.30
2023-05-17T07:09:24.742Z,145.54
2023-05-17T07:10:24.786Z,147.05
2023-05-17T07:11:24.692Z,147.14
2023-05-17T07:12:24.697Z,147.47
2023-05-17T07:13:24.721Z,147.69
2023-05-17T07:14:24.772Z,148.73
2023-05-17T07:15:24.735Z,151.78
2023-05-17T07:16:24.720Z,150.41
2023-05-17T07:17:24.737Z,151.63
2023-05-17T07:18:24.815Z,154.27
2023-05-17T07:19:24.805Z,155.79
2023-05-17T07:20:24.744Z,163.54
2023-05-17T07:21:24.764Z,160.17
2023-05-17T07:22:24.758Z,161.64
2023-05-17T07:23:24.927Z,163.99
2023-05-17T07:24:24.750Z,167.79
2023-05-17T07:25:24.829Z,172.76
2023-05-17T07:26:24.749Z,173.62
2023-05-17T07:27:24.747Z,173.23
2023-05-17T07:28:24.755Z,146.49
2023-05-17T07:29:24.871Z,79.30
2023-05-17T07:30:24.771Z,27.48
2023-05-17T07:31:24.753Z,7.64
2023-05-17T07:32:24.777Z,27.22
2023-05-17T07:33:24.770Z,41.88
2023-05-17T07:34:24.812Z,59.77
2023-05-17T07:35:24.777Z,70.44
2023-05-17T07:36:24.795Z,90.98
2023-05-17T07:37:24.773Z,111.57
2023-05-17T07:38:24.771Z,125.62
2023-05-17T07:39:24.788Z,139.70
2023-05-17T07:40:24.794Z,149.59
2023-05-17T07:41:24.834Z,164.24
2023-05-17T07:42:24.775Z,175.66
2023-05-17T07:43:24.789Z,177.24
2023-05-17T07:44:24.805Z,169.17
2023-05-17T07:45:24.789Z,168.51
2023-05-17T07:46:24.810Z,168.54
2023-05-17T07:47:24.834Z,178.18
2023-05-17T07:48:24.912Z,182.90
2023-05-17T07:49:24.854Z,182.27
2023-05-17T07:50:24.825Z,180.79
2023-05-17T07:51:24.824Z,178.67
2023-05-17T07:52:24.868Z,182.72
2023-05-17T07:53:24.849Z,195.85
2023-05-17T07:54:24.836Z,196.33
2023-05-17T07:55:24.851Z,199.38
2023-05-17T07:56:24.867Z,209.14
2023-05-17T07:57:24.881Z,226.78
2023-05-17T07:58:25.384Z,251.10
2023-05-17T07:59:24.851Z,250.07
2023-05-17T08:00:24.857Z,250.00
2023-05-17T08:01:24.843Z,250.10
2023-05-17T08:02:24.909Z,249.62
2023-05-17T08:03:24.914Z,249.49
2023-05-17T08:04:24.963Z,250.00
2023-05-17T08:05:24.993Z,250.38
2023-05-17T08:06:25.062Z,249.71
2023-05-17T08:07:25.008Z,250.44
2023-05-17T08:08:25.008Z,249.68
2023-05-17T08:09:25.022Z,249.17
2023-05-17T08:10:25.026Z,248.61
2023-05-17T08:11:25.040Z,248.51
2023-05-17T08:12:25.038Z,249.29
2023-05-17T08:13:25.062Z,247.81
2023-05-17T08:14:25.047Z,246.18
2023-05-17T08:15:25.052Z,240.34
2023-05-17T08:16:25.148Z,243.86
2023-05-17T08:17:25.094Z,236.84
2023-05-17T08:18:25.133Z,229.28
2023-05-17T08:19:25.164Z,232.22
2023-05-17T08:20:25.093Z,232.24
2023-05-17T08:21:25.088Z,235.11
2023-05-17T08:22:25.144Z,238.38
2023-05-17T08:23:25.154Z,239.54
2023-05-17T08:24:25.193Z,242.77
2023-05-17T08:25:25.232Z,243.61
2023-05-17T08:26:25.294Z,242.25
2023-05-17T08:27:25.373Z,243.91
2023-05-17T08:28:25.438Z,240.15
2023-05-17T08:29:25.626Z,243.44
2023-05-17T08:30:29.190Z,243.11
2023-05-17T08:31:25.587Z,243.04
2023-05-17T08:32:25.633Z,243.08
2023-05-17T08:33:25.617Z,243.41
2023-05-17T08:34:25.557Z,243.42
2023-05-17T08:35:27.714Z,237.39
2023-05-17T08:36:25.557Z,240.88
2023-05-17T08:37:25.558Z,234.61
2023-05-17T08:38:25.556Z,228.53
2023-05-17T08:39:25.535Z,222.72
2023-05-17T08:40:25.677Z,220.27
2023-05-17T08:41:25.538Z,216.78
2023-05-17T08:42:25.543Z,215.40
2023-05-17T08:43:27.756Z,215.62
2023-05-17T08:44:25.658Z,215.84
2023-05-17T08:45:25.994Z,216.95
2023-05-17T08:46:25.734Z,216.66
2023-05-17T08:47:25.850Z,221.45
2023-05-17T08:48:25.946Z,227.81
2023-05-17T08:49:26.048Z,229.92
2023-05-17T08:50:25.969Z,235.18
2023-05-17T08:51:26.022Z,242.79
2023-05-17T08:52:26.056Z,247.49
2023-05-17T08:53:26.161Z,249.97
2023-05-17T08:54:26.137Z,250.06
2023-05-17T08:55:26.171Z,250.00
2023-05-17T08:56:26.219Z,250.00
2023-05-17T08:57:26.263Z,250.00
2023-05-17T08:58:26.301Z,250.45
2023-05-17T08:59:26.339Z,247.31
2023-05-17T09:00:26.516Z,247.77
2023-05-17T09:01:27.927Z,246.09
2023-05-17T09:02:26.474Z,242.75
2023-05-17T09:03:26.586Z,241.74
2023-05-17T09:04:26.564Z,237.85
2023-05-17T09:05:26.617Z,230.79
2023-05-17T09:06:26.629Z,227.86
2023-05-17T09:07:26.680Z,225.75
2023-05-17T09:08:26.739Z,222.26
2023-05-17T09:09:26.774Z,223.19
2023-05-17T09:10:26.988Z,218.36
2023-05-17T09:11:26.927Z,218.98
2023-05-17T09:12:26.900Z,217.03
2023-05-17T09:13:27.016Z,217.72
2023-05-17T09:14:26.986Z,218.65
2023-05-17T09:15:27.080Z,220.04
2023-05-17T09:16:27.132Z,225.92
2023-05-17T09:17:27.179Z,225.99
2023-05-17T09:18:27.289Z,229.61
2023-05-17T09:19:27.261Z,229.79
2023-05-17T09:20:27.300Z,230.54
2023-05-17T09:21:27.187Z,232.63
2023-05-17T09:22:27.129Z,237.66
2023-05-17T09:23:27.129Z,243.86
2023-05-17T09:24:27.138Z,247.15
2023-05-17T09:25:27.135Z,249.66
2023-05-17T09:26:27.125Z,250.00
2023-05-17T09:27:27.107Z,249.40
2023-05-17T09:28:27.113Z,249.47
2023-05-17T09:29:27.104Z,248.80
2023-05-17T09:30:27.261Z,250.00
2023-05-17T09:31:27.077Z,250.00
2023-05-17T09:32:27.090Z,250.11
2023-05-17T09:33:27.098Z,250.22
2023-05-17T09:34:27.060Z,251.49
2023-05-17T09:35:27.101Z,251.68
2023-05-17T09:36:27.037Z,253.58
2023-05-17T09:37:27.031Z,247.85
2023-05-17T09:38:27.018Z,247.89
2023-05-17T09:39:27.022Z,247.90
2023-05-17T09:40:27.028Z,248.08
2023-05-17T09:41:27.001Z,248.21
2023-05-17T09:42:27.046Z,246.86
2023-05-17T09:43:27.002Z,247.15
2023-05-17T09:44:26.989Z,244.52
2023-05-17T09:45:27.288Z,241.43
2023-05-17T09:46:26.984Z,233.06
2023-05-17T09:47:27.096Z,229.65
2023-05-17T09:48:27.067Z,220.65
2023-05-17T09:49:26.976Z,214.13
2023-05-17T09:50:26.986Z,208.58
2023-05-17T09:51:26.972Z,201.77
2023-05-17T09:52:27.009Z,197.78
2023-05-17T09:53:26.957Z,190.48
2023-05-17T09:54:26.958Z,184.03
2023-05-17T09:55:27.232Z,181.10
2023-05-17T09:56:26.948Z,175.90
2023-05-17T09:57:26.954Z,170.11
2023-05-17T09:58:26.962Z,165.63
2023-05-17T09:59:26.938Z,162.69
2023-05-17T10:00:26.962Z,160.22
2023-05-17T10:01:26.960Z,156.44
2023-05-17T10:02:26.975Z,150.89
2023-05-17T10:03:27.025Z,149.03
2023-05-17T10:04:26.964Z,145.97
2023-05-17T10:05:27.142Z,141.90
2023-05-17T10:06:39.213Z,138.40
2023-05-17T10:07:27.988Z,137.85
2023-05-17T10:08:26.977Z,135.13
2023-05-17T10:09:26.966Z,131.67
2023-05-17T10:10:26.965Z,129.30
2023-05-17T10:11:26.960Z,129.11
2023-05-17T10:12:26.951Z,128.43
2023-05-17T10:13:26.946Z,124.80
2023-05-17T10:14:26.984Z,122.50
2023-05-17T10:15:27.079Z,122.73
2023-05-17T10:16:26.952Z,122.28
2023-05-17T10:17:26.989Z,122.23
2023-05-17T10:18:27.101Z,121.87
2023-05-17T10:19:27.349Z,120.39
2023-05-17T10:20:27.156Z,118.69
2023-05-17T10:21:27.133Z,118.80
2023-05-17T10:22:27.141Z,118.73
2023-05-17T10:23:27.146Z,119.01
2023-05-17T10:24:27.156Z,119.06
2023-05-17T10:25:27.372Z,120.04
2023-05-17T10:26:27.146Z,119.44
2023-05-17T10:27:27.149Z,122.46
2023-05-17T10:28:27.147Z,122.37
2023-05-17T10:29:27.138Z,123.36
2023-05-17T10:30:27.124Z,124.41
2023-05-17T10:31:27.136Z,124.47
2023-05-17T10:32:27.453Z,125.37
2023-05-17T10:33:27.329Z,129.03
2023-05-17T10:34:27.217Z,129.14
2023-05-17T10:35:27.363Z,129.95
2023-05-17T10:36:27.214Z,129.33
2023-05-17T10:37:27.213Z,130.36
2023-05-17T10:38:38.722Z,133.01
2023-05-17T10:39:28.194Z,129.45
2023-05-17T10:40:27.177Z,131.31
2023-05-17T10:41:27.174Z,133.58
2023-05-17T10:42:27.174Z,137.85
2023-05-17T10:43:27.160Z,140.82
2023-05-17T10:44:27.162Z,140.83
2023-05-17T10:45:27.455Z,143.84
2023-05-17T10:46:27.155Z,144.13
2023-05-17T10:47:27.152Z,143.76
2023-05-17T10:48:27.212Z,144.32
2023-05-17T10:49:27.514Z,142.40
2023-05-17T10:50:27.515Z,137.01
2023-05-17T10:51:27.238Z,142.26
2023-05-17T10:52:27.278Z,139.52
2023-05-17T10:53:27.316Z,135.65
2023-05-17T10:54:27.277Z,138.88
2023-05-17T10:55:27.443Z,142.08
2023-05-17T10:56:27.300Z,142.50
2023-05-17T10:57:27.724Z,139.07
2023-05-17T10:58:27.305Z,138.76
2023-05-17T10:59:27.303Z,139.00
2023-05-17T11:00:27.551Z,139.78
2023-05-17T11:01:27.299Z,140.86
2023-05-17T11:02:27.400Z,143.88
2023-05-17T11:03:27.312Z,145.63
2023-05-17T11:04:27.353Z,144.70
2023-05-17T11:05:27.807Z,144.80
2023-05-17T11:06:27.345Z,145.54
2023-05-17T11:07:27.418Z,145.92
2023-05-17T11:08:27.340Z,147.04
2023-05-17T11:09:27.335Z,153.40
2023-05-17T11:10:27.572Z,154.03
2023-05-17T11:11:27.339Z,153.61
2023-05-17T11:12:27.371Z,151.58
2023-05-17T11:13:27.398Z,150.56
2023-05-17T11:14:27.662Z,148.19
2023-05-17T11:15:27.413Z,146.18
2023-05-17T11:16:27.373Z,150.67
2023-05-17T11:17:27.402Z,150.53
2023-05-17T11:18:30.818Z,150.63
2023-05-17T11:19:28.527Z,150.82
2023-05-17T11:20:28.042Z,152.18
2023-05-17T11:21:27.377Z,153.85
2023-05-17T11:22:27.393Z,156.59
2023-05-17T11:23:27.384Z,156.08
2023-05-17T11:24:27.449Z,156.17
2023-05-17T11:25:27.382Z,154.85
2023-05-17T11:26:27.386Z,156.32
2023-05-17T11:27:27.401Z,159.49
2023-05-17T11:28:27.403Z,155.54
2023-05-17T11:29:27.388Z,152.40
2023-05-17T11:30:27.484Z,153.55
2023-05-17T11:31:27.393Z,152.58
2023-05-17T11:32:27.398Z,145.38
2023-05-17T11:33:33.564Z,150.85
2023-05-17T11:34:28.532Z,151.36
2023-05-17T11:35:27.402Z,154.28
2023-05-17T11:36:27.404Z,155.72
2023-05-17T11:37:27.416Z,155.72
2023-05-17T11:38:27.409Z,154.24
2023-05-17T11:39:27.393Z,147.69
2023-05-17T11:40:27.652Z,142.78
2023-05-17T11:41:27.520Z,143.18
2023-05-17T11:42:27.390Z,149.31
2023-05-17T11:43:27.405Z,148.10
2023-05-17T11:44:27.397Z,147.71
2023-05-17T11:45:27.709Z,147.20
2023-05-17T11:46:27.485Z,148.21
2023-05-17T11:47:27.609Z,149.50
2023-05-17T11:48:27.694Z,148.83
2023-05-17T11:50:28.780Z,148.06
2023-05-17T11:51:27.605Z,149.58
2023-05-17T11:52:29.120Z,150.43
2023-05-17T11:53:27.615Z,153.87
2023-05-17T11:54:27.610Z,156.13
2023-05-17T11:55:27.847Z,157.92
2023-05-17T11:56:41.982Z,155.39
2023-05-17T11:57:28.614Z,155.50
2023-05-17T11:58:27.621Z,156.08
2023-05-17T11:59:27.626Z,156.78
2023-05-17T12:00:27.927Z,157.70
2023-05-17T12:01:27.606Z,157.83
2023-05-17T12:02:27.663Z,157.92
2023-05-17T12:03:27.622Z,158.57
2023-05-17T12:04:27.684Z,158.91
2023-05-17T12:05:27.617Z,160.74
2023-05-17T12:06:27.657Z,160.85
2023-05-17T12:07:27.613Z,161.75
2023-05-17T12:08:27.639Z,162.79
2023-05-17T12:09:27.634Z,163.49
2023-05-17T12:10:27.860Z,163.17
2023-05-17T12:11:27.634Z,163.78
2023-05-17T12:12:27.632Z,166.80
2023-05-17T12:13:27.635Z,167.50
2023-05-17T12:14:27.649Z,168.52
2023-05-17T12:15:27.665Z,168.97
2023-05-17T12:16:27.677Z,170.29
2023-05-17T12:17:27.786Z,169.53
2023-05-17T12:18:27.898Z,168.69
2023-05-17T12:19:27.987Z,168.96
2023-05-17T12:20:28.083Z,171.34
2023-05-17T12:21:27.979Z,173.81
2023-05-17T12:22:28.029Z,175.07
2023-05-17T12:23:28.096Z,173.76
2023-05-17T12:24:28.203Z,173.66
2023-05-17T12:25:28.254Z,175.14
2023-05-17T12:26:28.277Z,178.52
2023-05-17T12:27:28.340Z,177.82
2023-05-17T12:28:28.409Z,177.60
2023-05-17T12:29:28.510Z,179.58
2023-05-17T12:30:28.735Z,180.08
2023-05-17T12:31:28.551Z,181.31
2023-05-17T12:32:28.684Z,183.24
2023-05-17T12:33:28.758Z,187.91
2023-05-17T12:34:28.735Z,187.54
2023-05-17T12:35:28.799Z,185.67
2023-05-17T12:36:28.859Z,188.07
2023-05-17T12:37:28.903Z,193.23
2023-05-17T12:38:28.958Z,195.55
2023-05-17T12:39:28.975Z,195.64